sensor_id;sensor_type;location;lat;lon;timestamp;P1;durP1;ratioP1;P2;durP2;ratioP2
5890;SDS011;2971;52.420;7.080;2022-11-15T00:00:27;20.23;;;18.13;;
5890;SDS011;2971;52.420;7.080;2022-11-15T00:02:53;20.33;;;18.33;;
5890;SDS011;2971;52.420;7.080;2022-11-15T00:05:19;20.07;;;17.97;;
5890;SDS011;2971;52.420;7.080;2022-11-15T00:07:44;20.90;;;18.70;;
5890;SDS011;2971;52.420;7.080;2022-11-15T00:10:09;20.57;;;18.37;;
5890;SDS011;2971;52.420;7.080;2022-11-15T00:12:35;20.07;;;17.97;;
5890;SDS011;2971;52.420;7.080;2022-11-15T00:15:00;20.63;;;18.53;;
5890;SDS011;2971;52.420;7.080;2022-11-15T00:17:26;20.60;;;18.50;;
5890;SDS011;2971;52.420;7.080;2022-11-15T00:19:51;19.67;;;17.67;;
5890;SDS011;2971;52.420;7.080;2022-11-15T00:22:16;20.87;;;18.87;;
5890;SDS011;2971;52.420;7.080;2022-11-15T00:24:42;20.47;;;18.47;;
5890;SDS011;2971;52.420;7.080;2022-11-15T00:27:07;20.37;;;17.77;;
5890;SDS011;2971;52.420;7.080;2022-11-15T00:29:33;20.40;;;18.27;;
5890;SDS011;2971;52.420;7.080;2022-11-15T00:31:58;20.70;;;18.53;;
5890;SDS011;2971;52.420;7.080;2022-11-15T00:34:24;20.90;;;18.70;;
5890;SDS011;2971;52.420;7.080;2022-11-15T00:36:49;20.97;;;18.83;;
5890;SDS011;2971;52.420;7.080;2022-11-15T00:39:14;21.03;;;19.00;;
5890;SDS011;2971;52.420;7.080;2022-11-15T00:41:40;21.33;;;19.13;;
5890;SDS011;2971;52.420;7.080;2022-11-15T00:44:05;21.77;;;19.57;;
5890;SDS011;2971;52.420;7.080;2022-11-15T00:46:31;23.63;;;21.10;;
5890;SDS011;2971;52.420;7.080;2022-11-15T00:48:56;21.73;;;19.47;;
5890;SDS011;2971;52.420;7.080;2022-11-15T00:51:22;24.10;;;20.60;;
5890;SDS011;2971;52.420;7.080;2022-11-15T00:53:47;22.20;;;19.87;;
5890;SDS011;2971;52.420;7.080;2022-11-15T00:56:12;23.10;;;20.70;;
5890;SDS011;2971;52.420;7.080;2022-11-15T00:58:38;23.93;;;21.43;;
5890;SDS011;2971;52.420;7.080;2022-11-15T01:01:07;24.33;;;21.90;;
5890;SDS011;2971;52.420;7.080;2022-11-15T01:03:34;24.47;;;21.77;;
5890;SDS011;2971;52.420;7.080;2022-11-15T01:06:00;25.70;;;22.30;;
5890;SDS011;2971;52.420;7.080;2022-11-15T01:08:25;25.50;;;21.93;;
5890;SDS011;2971;52.420;7.080;2022-11-15T01:10:51;26.87;;;23.13;;
5890;SDS011;2971;52.420;7.080;2022-11-15T01:13:16;24.97;;;22.27;;
5890;SDS011;2971;52.420;7.080;2022-11-15T01:15:42;26.23;;;23.00;;
5890;SDS011;2971;52.420;7.080;2022-11-15T01:18:08;26.03;;;23.23;;
5890;SDS011;2971;52.420;7.080;2022-11-15T01:20:38;26.77;;;23.93;;
5890;SDS011;2971;52.420;7.080;2022-11-15T01:23:04;27.07;;;23.73;;
5890;SDS011;2971;52.420;7.080;2022-11-15T01:25:30;28.97;;;24.20;;
5890;SDS011;2971;52.420;7.080;2022-11-15T01:27:55;29.83;;;23.60;;
5890;SDS011;2971;52.420;7.080;2022-11-15T01:30:21;31.07;;;25.57;;
5890;SDS011;2971;52.420;7.080;2022-11-15T01:32:46;29.27;;;25.53;;
5890;SDS011;2971;52.420;7.080;2022-11-15T01:35:11;34.60;;;26.57;;
5890;SDS011;2971;52.420;7.080;2022-11-15T01:37:37;33.87;;;26.93;;
5890;SDS011;2971;52.420;7.080;2022-11-15T01:40:02;30.40;;;25.47;;
5890;SDS011;2971;52.420;7.080;2022-11-15T01:42:28;29.67;;;26.20;;
5890;SDS011;2971;52.420;7.080;2022-11-15T01:44:54;31.13;;;26.43;;
5890;SDS011;2971;52.420;7.080;2022-11-15T01:47:33;31.13;;;26.60;;
5890;SDS011;2971;52.420;7.080;2022-11-15T01:50:03;32.27;;;27.40;;
5890;SDS011;2971;52.420;7.080;2022-11-15T01:52:31;32.33;;;27.20;;
5890;SDS011;2971;52.420;7.080;2022-11-15T01:55:00;33.43;;;27.30;;
5890;SDS011;2971;52.420;7.080;2022-11-15T01:57:47;31.27;;;27.20;;
5890;SDS011;2971;52.420;7.080;2022-11-15T02:00:15;32.80;;;27.63;;
5890;SDS011;2971;52.420;7.080;2022-11-15T02:02:41;34.10;;;28.00;;
5890;SDS011;2971;52.420;7.080;2022-11-15T02:05:06;36.03;;;27.47;;
5890;SDS011;2971;52.420;7.080;2022-11-15T02:07:34;32.87;;;27.27;;
5890;SDS011;2971;52.420;7.080;2022-11-15T02:10:02;32.83;;;28.27;;
5890;SDS011;2971;52.420;7.080;2022-11-15T02:12:33;31.83;;;27.60;;
5890;SDS011;2971;52.420;7.080;2022-11-15T02:14:59;30.67;;;27.43;;
5890;SDS011;2971;52.420;7.080;2022-11-15T02:20:23;32.73;;;28.07;;
5890;SDS011;2971;52.420;7.080;2022-11-15T02:23:03;32.03;;;27.30;;
5890;SDS011;2971;52.420;7.080;2022-11-15T02:39:38;30.80;;;27.47;;
5890;SDS011;2971;52.420;7.080;2022-11-15T02:43:11;29.47;;;26.30;;
5890;SDS011;2971;52.420;7.080;2022-11-15T02:45:31;31.53;;;27.67;;
5890;SDS011;2971;52.420;7.080;2022-11-15T02:48:00;31.40;;;27.13;;
5890;SDS011;2971;52.420;7.080;2022-11-15T02:50:27;29.47;;;26.27;;
5890;SDS011;2971;52.420;7.080;2022-11-15T02:52:54;32.27;;;26.63;;
5890;SDS011;2971;52.420;7.080;2022-11-15T02:55:30;31.77;;;26.90;;
5890;SDS011;2971;52.420;7.080;2022-11-15T03:00:47;34.13;;;26.90;;
5890;SDS011;2971;52.420;7.080;2022-11-15T03:11:16;33.50;;;27.43;;
5890;SDS011;2971;52.420;7.080;2022-11-15T03:21:39;30.43;;;27.07;;
5890;SDS011;2971;52.420;7.080;2022-11-15T03:24:05;30.60;;;27.30;;
5890;SDS011;2971;52.420;7.080;2022-11-15T03:26:32;30.23;;;27.03;;
5890;SDS011;2971;52.420;7.080;2022-11-15T03:29:00;31.07;;;26.70;;
5890;SDS011;2971;52.420;7.080;2022-11-15T03:31:53;30.67;;;26.17;;
5890;SDS011;2971;52.420;7.080;2022-11-15T03:36:51;34.60;;;27.57;;
5890;SDS011;2971;52.420;7.080;2022-11-15T03:39:17;30.50;;;26.87;;
5890;SDS011;2971;52.420;7.080;2022-11-15T03:41:47;31.20;;;27.47;;
5890;SDS011;2971;52.420;7.080;2022-11-15T03:47:06;29.97;;;26.10;;
5890;SDS011;2971;52.420;7.080;2022-11-15T03:49:35;29.07;;;25.50;;
5890;SDS011;2971;52.420;7.080;2022-11-15T03:52:02;30.60;;;26.13;;
5890;SDS011;2971;52.420;7.080;2022-11-15T03:54:29;31.20;;;25.47;;
5890;SDS011;2971;52.420;7.080;2022-11-15T03:56:54;28.80;;;25.87;;
5890;SDS011;2971;52.420;7.080;2022-11-15T03:59:20;31.40;;;25.53;;
5890;SDS011;2971;52.420;7.080;2022-11-15T04:01:45;29.23;;;24.30;;
5890;SDS011;2971;52.420;7.080;2022-11-15T04:04:11;29.50;;;24.67;;
5890;SDS011;2971;52.420;7.080;2022-11-15T04:06:36;28.73;;;24.80;;
5890;SDS011;2971;52.420;7.080;2022-11-15T04:09:02;29.47;;;24.20;;
5890;SDS011;2971;52.420;7.080;2022-11-15T04:11:28;27.93;;;23.87;;
5890;SDS011;2971;52.420;7.080;2022-11-15T04:13:54;27.33;;;24.17;;
5890;SDS011;2971;52.420;7.080;2022-11-15T04:16:19;26.73;;;23.80;;
5890;SDS011;2971;52.420;7.080;2022-11-15T04:18:45;29.57;;;24.57;;
5890;SDS011;2971;52.420;7.080;2022-11-15T04:21:30;29.37;;;24.37;;
5890;SDS011;2971;52.420;7.080;2022-11-15T04:24:14;27.93;;;24.83;;
5890;SDS011;2971;52.420;7.080;2022-11-15T04:26:39;28.00;;;24.43;;
5890;SDS011;2971;52.420;7.080;2022-11-15T04:29:05;28.90;;;24.60;;
5890;SDS011;2971;52.420;7.080;2022-11-15T04:31:49;27.50;;;23.90;;
5890;SDS011;2971;52.420;7.080;2022-11-15T04:34:14;28.90;;;24.17;;
5890;SDS011;2971;52.420;7.080;2022-11-15T04:36:39;29.37;;;24.67;;
5890;SDS011;2971;52.420;7.080;2022-11-15T04:39:23;29.00;;;24.37;;
5890;SDS011;2971;52.420;7.080;2022-11-15T04:41:48;31.87;;;25.10;;
5890;SDS011;2971;52.420;7.080;2022-11-15T04:44:14;29.37;;;24.43;;
5890;SDS011;2971;52.420;7.080;2022-11-15T04:46:39;27.40;;;23.67;;
5890;SDS011;2971;52.420;7.080;2022-11-15T04:49:05;27.77;;;23.53;;
5890;SDS011;2971;52.420;7.080;2022-11-15T04:51:30;28.47;;;23.47;;
5890;SDS011;2971;52.420;7.080;2022-11-15T04:53:55;26.67;;;22.90;;
5890;SDS011;2971;52.420;7.080;2022-11-15T04:56:21;26.57;;;23.60;;
5890;SDS011;2971;52.420;7.080;2022-11-15T04:58:48;25.60;;;22.40;;
5890;SDS011;2971;52.420;7.080;2022-11-15T05:01:14;26.57;;;22.27;;
5890;SDS011;2971;52.420;7.080;2022-11-15T05:03:43;25.53;;;22.83;;
5890;SDS011;2971;52.420;7.080;2022-11-15T05:06:28;31.13;;;23.57;;
5890;SDS011;2971;52.420;7.080;2022-11-15T05:08:54;27.67;;;23.90;;
5890;SDS011;2971;52.420;7.080;2022-11-15T05:11:20;26.20;;;22.17;;
5890;SDS011;2971;52.420;7.080;2022-11-15T05:13:47;26.07;;;22.37;;
5890;SDS011;2971;52.420;7.080;2022-11-15T05:16:12;23.90;;;21.40;;
5890;SDS011;2971;52.420;7.080;2022-11-15T05:18:38;26.83;;;22.60;;
5890;SDS011;2971;52.420;7.080;2022-11-15T05:21:10;24.63;;;21.50;;
5890;SDS011;2971;52.420;7.080;2022-11-15T05:23:37;26.57;;;22.23;;
5890;SDS011;2971;52.420;7.080;2022-11-15T05:26:03;27.53;;;22.70;;
5890;SDS011;2971;52.420;7.080;2022-11-15T05:28:29;24.43;;;21.90;;
5890;SDS011;2971;52.420;7.080;2022-11-15T05:33:31;25.37;;;22.60;;
5890;SDS011;2971;52.420;7.080;2022-11-15T05:36:00;24.37;;;21.87;;
5890;SDS011;2971;52.420;7.080;2022-11-15T05:38:37;25.13;;;22.43;;
5890;SDS011;2971;52.420;7.080;2022-11-15T05:41:03;24.77;;;21.53;;
5890;SDS011;2971;52.420;7.080;2022-11-15T05:43:29;27.73;;;22.07;;
5890;SDS011;2971;52.420;7.080;2022-11-15T05:45:58;25.73;;;22.47;;
5890;SDS011;2971;52.420;7.080;2022-11-15T05:48:24;25.13;;;20.97;;
5890;SDS011;2971;52.420;7.080;2022-11-15T05:50:50;25.10;;;20.97;;
5890;SDS011;2971;52.420;7.080;2022-11-15T05:53:16;23.40;;;20.20;;
5890;SDS011;2971;52.420;7.080;2022-11-15T05:55:44;23.63;;;19.47;;
5890;SDS011;2971;52.420;7.080;2022-11-15T05:58:10;22.53;;;20.13;;
5890;SDS011;2971;52.420;7.080;2022-11-15T06:00:36;23.67;;;20.00;;
5890;SDS011;2971;52.420;7.080;2022-11-15T06:03:02;23.97;;;21.30;;
5890;SDS011;2971;52.420;7.080;2022-11-15T06:05:27;25.53;;;20.27;;
5890;SDS011;2971;52.420;7.080;2022-11-15T06:07:56;21.93;;;19.13;;
5890;SDS011;2971;52.420;7.080;2022-11-15T06:10:23;22.07;;;18.97;;
5890;SDS011;2971;52.420;7.080;2022-11-15T06:13:22;22.47;;;20.07;;
5890;SDS011;2971;52.420;7.080;2022-11-15T06:15:41;27.73;;;19.60;;
5890;SDS011;2971;52.420;7.080;2022-11-15T06:18:06;21.60;;;19.37;;
5890;SDS011;2971;52.420;7.080;2022-11-15T06:20:33;20.90;;;18.67;;
5890;SDS011;2971;52.420;7.080;2022-11-15T06:22:59;20.40;;;18.13;;
5890;SDS011;2971;52.420;7.080;2022-11-15T06:25:28;21.20;;;18.93;;
5890;SDS011;2971;52.420;7.080;2022-11-15T06:27:53;22.47;;;18.77;;
5890;SDS011;2971;52.420;7.080;2022-11-15T06:30:20;21.47;;;17.93;;
5890;SDS011;2971;52.420;7.080;2022-11-15T06:32:45;20.63;;;17.47;;
5890;SDS011;2971;52.420;7.080;2022-11-15T06:35:11;19.60;;;17.70;;
5890;SDS011;2971;52.420;7.080;2022-11-15T06:37:37;21.90;;;18.37;;
5890;SDS011;2971;52.420;7.080;2022-11-15T06:40:02;20.53;;;17.43;;
5890;SDS011;2971;52.420;7.080;2022-11-15T06:42:28;20.40;;;18.27;;
5890;SDS011;2971;52.420;7.080;2022-11-15T06:44:54;21.70;;;18.13;;
5890;SDS011;2971;52.420;7.080;2022-11-15T06:47:19;20.20;;;18.13;;
5890;SDS011;2971;52.420;7.080;2022-11-15T06:49:44;21.63;;;19.37;;
5890;SDS011;2971;52.420;7.080;2022-11-15T06:52:10;21.37;;;19.17;;
5890;SDS011;2971;52.420;7.080;2022-11-15T06:54:35;21.70;;;18.60;;
5890;SDS011;2971;52.420;7.080;2022-11-15T06:57:00;20.70;;;18.40;;
5890;SDS011;2971;52.420;7.080;2022-11-15T06:59:26;20.43;;;18.23;;
5890;SDS011;2971;52.420;7.080;2022-11-15T07:01:51;24.33;;;18.80;;
5890;SDS011;2971;52.420;7.080;2022-11-15T07:04:17;20.77;;;18.50;;
5890;SDS011;2971;52.420;7.080;2022-11-15T07:06:42;24.13;;;19.30;;
5890;SDS011;2971;52.420;7.080;2022-11-15T07:09:11;20.97;;;18.73;;
5890;SDS011;2971;52.420;7.080;2022-11-15T07:11:37;21.90;;;18.43;;
5890;SDS011;2971;52.420;7.080;2022-11-15T07:14:02;22.43;;;19.23;;
5890;SDS011;2971;52.420;7.080;2022-11-15T07:16:28;22.47;;;19.73;;
5890;SDS011;2971;52.420;7.080;2022-11-15T07:18:53;21.83;;;19.53;;
5890;SDS011;2971;52.420;7.080;2022-11-15T07:21:19;22.00;;;19.80;;
5890;SDS011;2971;52.420;7.080;2022-11-15T07:23:44;22.77;;;20.33;;
5890;SDS011;2971;52.420;7.080;2022-11-15T07:26:09;23.37;;;20.10;;
5890;SDS011;2971;52.420;7.080;2022-11-15T07:28:35;23.67;;;21.20;;
5890;SDS011;2971;52.420;7.080;2022-11-15T07:31:04;25.50;;;21.90;;
5890;SDS011;2971;52.420;7.080;2022-11-15T07:33:30;26.03;;;21.03;;
5890;SDS011;2971;52.420;7.080;2022-11-15T07:35:58;25.07;;;21.47;;
5890;SDS011;2971;52.420;7.080;2022-11-15T07:38:29;24.77;;;21.77;;
5890;SDS011;2971;52.420;7.080;2022-11-15T07:41:00;25.60;;;22.20;;
5890;SDS011;2971;52.420;7.080;2022-11-15T07:43:26;24.80;;;22.33;;
5890;SDS011;2971;52.420;7.080;2022-11-15T07:45:55;25.07;;;21.50;;
5890;SDS011;2971;52.420;7.080;2022-11-15T07:48:21;25.33;;;21.07;;
5890;SDS011;2971;52.420;7.080;2022-11-15T07:50:47;23.67;;;21.17;;
5890;SDS011;2971;52.420;7.080;2022-11-15T07:53:13;23.07;;;20.60;;
5890;SDS011;2971;52.420;7.080;2022-11-15T07:55:39;26.60;;;21.17;;
5890;SDS011;2971;52.420;7.080;2022-11-15T07:58:07;24.20;;;21.60;;
5890;SDS011;2971;52.420;7.080;2022-11-15T08:00:35;24.77;;;21.70;;
5890;SDS011;2971;52.420;7.080;2022-11-15T08:03:10;24.57;;;21.60;;
5890;SDS011;2971;52.420;7.080;2022-11-15T08:05:37;24.83;;;22.13;;
5890;SDS011;2971;52.420;7.080;2022-11-15T08:08:04;25.63;;;22.30;;
5890;SDS011;2971;52.420;7.080;2022-11-15T08:10:29;27.27;;;22.70;;
5890;SDS011;2971;52.420;7.080;2022-11-15T08:13:02;24.37;;;21.77;;
5890;SDS011;2971;52.420;7.080;2022-11-15T08:15:29;25.23;;;22.03;;
5890;SDS011;2971;52.420;7.080;2022-11-15T08:18:00;25.93;;;20.80;;
5890;SDS011;2971;52.420;7.080;2022-11-15T08:20:29;26.80;;;21.17;;
5890;SDS011;2971;52.420;7.080;2022-11-15T08:22:58;23.87;;;20.63;;
5890;SDS011;2971;52.420;7.080;2022-11-15T08:25:25;22.67;;;20.27;;
5890;SDS011;2971;52.420;7.080;2022-11-15T08:27:55;25.83;;;20.77;;
5890;SDS011;2971;52.420;7.080;2022-11-15T08:30:22;22.80;;;19.83;;
5890;SDS011;2971;52.420;7.080;2022-11-15T08:32:48;23.07;;;20.40;;
5890;SDS011;2971;52.420;7.080;2022-11-15T08:35:15;23.60;;;20.13;;
5890;SDS011;2971;52.420;7.080;2022-11-15T08:37:41;21.93;;;19.53;;
5890;SDS011;2971;52.420;7.080;2022-11-15T08:40:06;22.53;;;18.80;;
5890;SDS011;2971;52.420;7.080;2022-11-15T08:42:32;22.10;;;19.47;;
5890;SDS011;2971;52.420;7.080;2022-11-15T08:44:58;21.97;;;18.60;;
5890;SDS011;2971;52.420;7.080;2022-11-15T08:47:23;19.47;;;17.37;;
5890;SDS011;2971;52.420;7.080;2022-11-15T08:49:49;21.57;;;18.67;;
5890;SDS011;2971;52.420;7.080;2022-11-15T08:52:14;20.10;;;18.13;;
5890;SDS011;2971;52.420;7.080;2022-11-15T08:54:40;19.70;;;17.80;;
5890;SDS011;2971;52.420;7.080;2022-11-15T08:57:05;19.17;;;17.17;;
5890;SDS011;2971;52.420;7.080;2022-11-15T08:59:31;19.10;;;17.20;;
5890;SDS011;2971;52.420;7.080;2022-11-15T09:01:56;18.30;;;16.40;;
5890;SDS011;2971;52.420;7.080;2022-11-15T09:04:22;18.37;;;16.47;;
5890;SDS011;2971;52.420;7.080;2022-11-15T09:06:47;17.50;;;15.87;;
5890;SDS011;2971;52.420;7.080;2022-11-15T09:09:13;18.43;;;16.67;;
5890;SDS011;2971;52.420;7.080;2022-11-15T09:11:39;17.47;;;15.77;;
5890;SDS011;2971;52.420;7.080;2022-11-15T09:14:04;16.27;;;14.57;;
5890;SDS011;2971;52.420;7.080;2022-11-15T09:16:30;16.87;;;15.17;;
5890;SDS011;2971;52.420;7.080;2022-11-15T09:18:56;18.70;;;15.80;;
5890;SDS011;2971;52.420;7.080;2022-11-15T09:21:21;18.40;;;14.77;;
5890;SDS011;2971;52.420;7.080;2022-11-15T09:23:49;15.30;;;13.70;;
5890;SDS011;2971;52.420;7.080;2022-11-15T09:26:15;14.47;;;12.97;;
5890;SDS011;2971;52.420;7.080;2022-11-15T09:28:40;15.23;;;13.73;;
5890;SDS011;2971;52.420;7.080;2022-11-15T09:31:07;13.50;;;12.20;;
5890;SDS011;2971;52.420;7.080;2022-11-15T09:33:33;13.13;;;11.27;;
5890;SDS011;2971;52.420;7.080;2022-11-15T09:36:02;11.73;;;10.47;;
5890;SDS011;2971;52.420;7.080;2022-11-15T09:38:29;12.23;;;10.20;;
5890;SDS011;2971;52.420;7.080;2022-11-15T09:41:08;10.47;;;9.43;;
5890;SDS011;2971;52.420;7.080;2022-11-15T09:43:42;10.57;;;9.47;;
5890;SDS011;2971;52.420;7.080;2022-11-15T09:49:01;9.33;;;8.43;;
5890;SDS011;2971;52.420;7.080;2022-11-15T09:56:24;9.90;;;8.83;;
5890;SDS011;2971;52.420;7.080;2022-11-15T09:59:37;9.60;;;8.67;;
5890;SDS011;2971;52.420;7.080;2022-11-15T10:04:48;9.27;;;8.40;;
5890;SDS011;2971;52.420;7.080;2022-11-15T10:09:42;9.30;;;8.50;;
5890;SDS011;2971;52.420;7.080;2022-11-15T10:12:21;9.13;;;8.30;;
5890;SDS011;2971;52.420;7.080;2022-11-15T10:14:47;8.43;;;7.73;;
5890;SDS011;2971;52.420;7.080;2022-11-15T10:27:33;6.90;;;6.20;;
5890;SDS011;2971;52.420;7.080;2022-11-15T10:30:00;5.63;;;5.07;;
5890;SDS011;2971;52.420;7.080;2022-11-15T10:32:26;5.20;;;4.47;;
5890;SDS011;2971;52.420;7.080;2022-11-15T10:34:51;4.90;;;4.10;;
5890;SDS011;2971;52.420;7.080;2022-11-15T10:37:30;4.43;;;4.03;;
5890;SDS011;2971;52.420;7.080;2022-11-15T10:40:12;5.00;;;3.47;;
5890;SDS011;2971;52.420;7.080;2022-11-15T10:42:41;4.70;;;3.50;;
5890;SDS011;2971;52.420;7.080;2022-11-15T10:45:22;4.13;;;3.73;;
5890;SDS011;2971;52.420;7.080;2022-11-15T10:47:49;4.93;;;3.90;;
5890;SDS011;2971;52.420;7.080;2022-11-15T10:50:31;6.37;;;4.47;;
5890;SDS011;2971;52.420;7.080;2022-11-15T10:52:57;6.20;;;4.30;;
5890;SDS011;2971;52.420;7.080;2022-11-15T10:55:24;4.83;;;4.33;;
5890;SDS011;2971;52.420;7.080;2022-11-15T10:57:54;6.23;;;4.70;;
5890;SDS011;2971;52.420;7.080;2022-11-15T11:05:26;6.97;;;4.97;;
5890;SDS011;2971;52.420;7.080;2022-11-15T11:07:58;6.27;;;4.30;;
5890;SDS011;2971;52.420;7.080;2022-11-15T11:10:55;6.40;;;3.83;;
5890;SDS011;2971;52.420;7.080;2022-11-15T11:13:28;4.27;;;3.37;;
5890;SDS011;2971;52.420;7.080;2022-11-15T11:18:37;4.90;;;3.70;;
5890;SDS011;2971;52.420;7.080;2022-11-15T11:21:05;4.70;;;3.57;;
5890;SDS011;2971;52.420;7.080;2022-11-15T11:23:54;7.27;;;3.90;;
5890;SDS011;2971;52.420;7.080;2022-11-15T11:29:20;4.60;;;3.27;;
5890;SDS011;2971;52.420;7.080;2022-11-15T11:37:14;4.83;;;3.00;;
5890;SDS011;2971;52.420;7.080;2022-11-15T11:39:52;3.30;;;2.63;;
5890;SDS011;2971;52.420;7.080;2022-11-15T11:45:48;5.57;;;2.67;;
5890;SDS011;2971;52.420;7.080;2022-11-15T11:53:41;4.37;;;2.40;;
5890;SDS011;2971;52.420;7.080;2022-11-15T11:56:29;3.03;;;1.90;;
5890;SDS011;2971;52.420;7.080;2022-11-15T12:01:54;4.97;;;1.70;;
5890;SDS011;2971;52.420;7.080;2022-11-15T12:06:50;2.57;;;1.60;;
5890;SDS011;2971;52.420;7.080;2022-11-15T12:14:57;2.57;;;1.67;;
5890;SDS011;2971;52.420;7.080;2022-11-15T12:17:29;3.87;;;1.80;;
5890;SDS011;2971;52.420;7.080;2022-11-15T12:20:02;3.10;;;1.77;;
5890;SDS011;2971;52.420;7.080;2022-11-15T12:22:38;3.53;;;2.00;;
5890;SDS011;2971;52.420;7.080;2022-11-15T12:25:14;4.97;;;2.53;;
5890;SDS011;2971;52.420;7.080;2022-11-15T12:27:49;3.83;;;2.10;;
5890;SDS011;2971;52.420;7.080;2022-11-15T12:30:19;4.70;;;2.40;;
5890;SDS011;2971;52.420;7.080;2022-11-15T12:32:51;8.10;;;4.97;;
5890;SDS011;2971;52.420;7.080;2022-11-15T12:35:39;7.80;;;3.20;;
5890;SDS011;2971;52.420;7.080;2022-11-15T12:38:10;5.77;;;3.23;;
5890;SDS011;2971;52.420;7.080;2022-11-15T12:40:37;3.50;;;2.30;;
5890;SDS011;2971;52.420;7.080;2022-11-15T12:49:02;3.77;;;3.10;;
5890;SDS011;2971;52.420;7.080;2022-11-15T13:07:57;6.27;;;3.33;;
5890;SDS011;2971;52.420;7.080;2022-11-15T13:13:07;3.90;;;3.50;;
5890;SDS011;2971;52.420;7.080;2022-11-15T13:15:52;4.80;;;3.60;;
5890;SDS011;2971;52.420;7.080;2022-11-15T13:20:54;4.33;;;3.80;;
5890;SDS011;2971;52.420;7.080;2022-11-15T13:23:20;4.87;;;3.00;;
5890;SDS011;2971;52.420;7.080;2022-11-15T13:28:41;3.97;;;2.60;;
5890;SDS011;2971;52.420;7.080;2022-11-15T13:33:51;3.40;;;2.40;;
5890;SDS011;2971;52.420;7.080;2022-11-15T13:36:24;2.90;;;2.13;;
5890;SDS011;2971;52.420;7.080;2022-11-15T13:39:06;3.73;;;2.00;;
5890;SDS011;2971;52.420;7.080;2022-11-15T13:41:44;3.87;;;1.90;;
5890;SDS011;2971;52.420;7.080;2022-11-15T13:44:18;2.80;;;1.80;;
5890;SDS011;2971;52.420;7.080;2022-11-15T13:46:48;2.57;;;1.67;;
5890;SDS011;2971;52.420;7.080;2022-11-15T13:49:13;4.50;;;2.13;;
5890;SDS011;2971;52.420;7.080;2022-11-15T13:54:20;2.17;;;1.50;;
5890;SDS011;2971;52.420;7.080;2022-11-15T13:56:59;2.23;;;1.37;;
5890;SDS011;2971;52.420;7.080;2022-11-15T13:59:29;2.93;;;1.43;;
5890;SDS011;2971;52.420;7.080;2022-11-15T14:01:57;1.87;;;1.50;;
5890;SDS011;2971;52.420;7.080;2022-11-15T14:04:27;3.20;;;1.80;;
5890;SDS011;2971;52.420;7.080;2022-11-15T14:06:59;3.47;;;1.80;;
5890;SDS011;2971;52.420;7.080;2022-11-15T14:09:36;3.00;;;1.90;;
5890;SDS011;2971;52.420;7.080;2022-11-15T14:12:20;2.70;;;1.40;;
5890;SDS011;2971;52.420;7.080;2022-11-15T14:14:46;5.87;;;1.60;;
5890;SDS011;2971;52.420;7.080;2022-11-15T14:17:32;3.30;;;1.70;;
5890;SDS011;2971;52.420;7.080;2022-11-15T14:19:59;2.60;;;1.60;;
5890;SDS011;2971;52.420;7.080;2022-11-15T14:22:25;3.03;;;1.40;;
5890;SDS011;2971;52.420;7.080;2022-11-15T14:30:33;2.87;;;1.70;;
5890;SDS011;2971;52.420;7.080;2022-11-15T14:32:59;4.93;;;1.90;;
5890;SDS011;2971;52.420;7.080;2022-11-15T14:35:24;3.17;;;1.70;;
5890;SDS011;2971;52.420;7.080;2022-11-15T14:37:50;3.17;;;2.00;;
5890;SDS011;2971;52.420;7.080;2022-11-15T14:40:17;2.60;;;1.90;;
5890;SDS011;2971;52.420;7.080;2022-11-15T14:42:44;5.60;;;4.73;;
5890;SDS011;2971;52.420;7.080;2022-11-15T14:45:18;9.63;;;7.57;;
5890;SDS011;2971;52.420;7.080;2022-11-15T14:47:44;10.43;;;8.17;;
5890;SDS011;2971;52.420;7.080;2022-11-15T14:50:13;21.23;;;16.50;;
5890;SDS011;2971;52.420;7.080;2022-11-15T14:52:40;27.30;;;19.50;;
5890;SDS011;2971;52.420;7.080;2022-11-15T14:55:11;15.33;;;11.73;;
5890;SDS011;2971;52.420;7.080;2022-11-15T14:57:40;12.07;;;9.13;;
5890;SDS011;2971;52.420;7.080;2022-11-15T15:00:05;8.03;;;5.47;;
5890;SDS011;2971;52.420;7.080;2022-11-15T15:02:33;5.23;;;3.80;;
5890;SDS011;2971;52.420;7.080;2022-11-15T15:04:58;4.63;;;2.90;;
5890;SDS011;2971;52.420;7.080;2022-11-15T15:07:26;3.93;;;2.27;;
5890;SDS011;2971;52.420;7.080;2022-11-15T15:09:51;3.57;;;2.20;;
5890;SDS011;2971;52.420;7.080;2022-11-15T15:12:18;2.83;;;2.20;;
5890;SDS011;2971;52.420;7.080;2022-11-15T15:14:46;6.90;;;2.63;;
5890;SDS011;2971;52.420;7.080;2022-11-15T15:17:12;3.90;;;2.07;;
5890;SDS011;2971;52.420;7.080;2022-11-15T15:19:38;2.87;;;2.13;;
5890;SDS011;2971;52.420;7.080;2022-11-15T15:22:03;3.10;;;2.80;;
5890;SDS011;2971;52.420;7.080;2022-11-15T15:24:29;7.33;;;4.63;;
5890;SDS011;2971;52.420;7.080;2022-11-15T15:26:54;5.73;;;3.60;;
5890;SDS011;2971;52.420;7.080;2022-11-15T15:29:20;5.77;;;4.10;;
5890;SDS011;2971;52.420;7.080;2022-11-15T15:31:45;5.03;;;3.60;;
5890;SDS011;2971;52.420;7.080;2022-11-15T15:34:11;4.87;;;3.27;;
5890;SDS011;2971;52.420;7.080;2022-11-15T15:36:36;3.80;;;2.53;;
5890;SDS011;2971;52.420;7.080;2022-11-15T15:39:02;5.10;;;2.70;;
5890;SDS011;2971;52.420;7.080;2022-11-15T15:41:27;5.97;;;3.93;;
5890;SDS011;2971;52.420;7.080;2022-11-15T15:43:53;5.10;;;4.03;;
5890;SDS011;2971;52.420;7.080;2022-11-15T15:46:19;3.73;;;3.23;;
5890;SDS011;2971;52.420;7.080;2022-11-15T15:48:45;3.70;;;3.03;;
5890;SDS011;2971;52.420;7.080;2022-11-15T15:51:11;3.80;;;2.90;;
5890;SDS011;2971;52.420;7.080;2022-11-15T15:53:36;3.90;;;2.77;;
5890;SDS011;2971;52.420;7.080;2022-11-15T15:56:02;4.23;;;2.87;;
5890;SDS011;2971;52.420;7.080;2022-11-15T15:58:28;5.03;;;2.30;;
5890;SDS011;2971;52.420;7.080;2022-11-15T16:00:54;3.30;;;2.50;;
5890;SDS011;2971;52.420;7.080;2022-11-15T16:03:19;4.47;;;2.63;;
5890;SDS011;2971;52.420;7.080;2022-11-15T16:05:45;4.20;;;2.90;;
5890;SDS011;2971;52.420;7.080;2022-11-15T16:08:21;3.90;;;2.67;;
5890;SDS011;2971;52.420;7.080;2022-11-15T16:10:47;3.40;;;3.10;;
5890;SDS011;2971;52.420;7.080;2022-11-15T16:13:13;5.67;;;2.50;;
5890;SDS011;2971;52.420;7.080;2022-11-15T16:15:39;4.07;;;2.60;;
5890;SDS011;2971;52.420;7.080;2022-11-15T16:18:04;3.60;;;2.20;;
5890;SDS011;2971;52.420;7.080;2022-11-15T16:23:02;4.73;;;2.50;;
5890;SDS011;2971;52.420;7.080;2022-11-15T16:25:28;3.63;;;2.83;;
5890;SDS011;2971;52.420;7.080;2022-11-15T16:28:01;4.27;;;2.60;;
5890;SDS011;2971;52.420;7.080;2022-11-15T16:30:28;3.97;;;2.67;;
5890;SDS011;2971;52.420;7.080;2022-11-15T16:32:53;4.30;;;2.47;;
5890;SDS011;2971;52.420;7.080;2022-11-15T16:35:19;3.17;;;2.10;;
5890;SDS011;2971;52.420;7.080;2022-11-15T16:37:44;5.43;;;4.93;;
5890;SDS011;2971;52.420;7.080;2022-11-15T16:42:49;2.77;;;2.10;;
5890;SDS011;2971;52.420;7.080;2022-11-15T16:45:14;3.47;;;2.30;;
5890;SDS011;2971;52.420;7.080;2022-11-15T16:47:39;4.10;;;2.43;;
5890;SDS011;2971;52.420;7.080;2022-11-15T16:50:05;3.57;;;2.20;;
5890;SDS011;2971;52.420;7.080;2022-11-15T16:52:31;3.57;;;1.97;;
5890;SDS011;2971;52.420;7.080;2022-11-15T16:54:56;4.57;;;2.20;;
5890;SDS011;2971;52.420;7.080;2022-11-15T16:57:21;2.47;;;1.97;;
5890;SDS011;2971;52.420;7.080;2022-11-15T16:59:47;6.13;;;2.30;;
5890;SDS011;2971;52.420;7.080;2022-11-15T17:02:12;2.60;;;2.20;;
5890;SDS011;2971;52.420;7.080;2022-11-15T17:04:39;4.23;;;2.43;;
5890;SDS011;2971;52.420;7.080;2022-11-15T17:07:04;3.10;;;1.90;;
5890;SDS011;2971;52.420;7.080;2022-11-15T17:09:30;3.37;;;2.30;;
5890;SDS011;2971;52.420;7.080;2022-11-15T17:11:57;3.43;;;2.40;;
5890;SDS011;2971;52.420;7.080;2022-11-15T17:14:22;4.37;;;2.40;;
5890;SDS011;2971;52.420;7.080;2022-11-15T17:16:47;4.53;;;2.53;;
5890;SDS011;2971;52.420;7.080;2022-11-15T17:19:14;4.47;;;2.77;;
5890;SDS011;2971;52.420;7.080;2022-11-15T17:21:43;4.07;;;2.60;;
5890;SDS011;2971;52.420;7.080;2022-11-15T17:24:09;3.13;;;2.57;;
5890;SDS011;2971;52.420;7.080;2022-11-15T17:26:34;3.97;;;2.60;;
5890;SDS011;2971;52.420;7.080;2022-11-15T17:29:00;5.17;;;2.73;;
5890;SDS011;2971;52.420;7.080;2022-11-15T17:31:26;4.83;;;2.80;;
5890;SDS011;2971;52.420;7.080;2022-11-15T17:33:54;2.87;;;2.27;;